createdAt,value
2019-05-07T00:00:46.750Z,9.75
2019-05-07T00:03:15.685Z,9.76
2019-05-07T00:05:44.558Z,9.74
2019-05-07T00:08:13.529Z,9.71
2019-05-07T00:10:42.671Z,9.59
2019-05-07T00:13:12.844Z,9.41
2019-05-07T00:15:42.090Z,9.38
2019-05-07T00:18:12.738Z,9.50
2019-05-07T00:20:42.564Z,9.56
2019-05-07T00:23:12.421Z,9.59
2019-05-07T00:25:42.321Z,9.56
2019-05-07T00:28:12.183Z,9.54
2019-05-07T00:30:42.516Z,9.46
2019-05-07T00:33:13.182Z,9.37
2019-05-07T00:35:46.401Z,9.38
2019-05-07T00:38:16.883Z,9.33
2019-05-07T00:40:47.423Z,9.35
2019-05-07T00:43:17.819Z,9.31
2019-05-07T00:45:57.313Z,9.25
2019-05-07T00:48:26.209Z,9.20
2019-05-07T00:50:56.681Z,9.17
2019-05-07T00:53:25.628Z,9.11
2019-05-07T00:55:54.480Z,9.00
2019-05-07T00:58:26.770Z,9.01
2019-05-07T01:00:54.073Z,8.95
2019-05-07T01:03:22.924Z,8.94
2019-05-07T01:05:52.721Z,8.85
2019-05-07T01:08:22.571Z,8.79
2019-05-07T01:10:52.934Z,8.77
2019-05-07T01:13:23.454Z,8.71
2019-05-07T01:15:53.497Z,8.66
2019-05-07T01:18:23.372Z,8.62
2019-05-07T01:20:53.261Z,8.53
2019-05-07T01:23:23.040Z,8.52
2019-05-07T01:25:52.736Z,8.51
2019-05-07T01:28:22.965Z,8.45
2019-05-07T01:30:52.873Z,8.41
2019-05-07T01:33:33.238Z,8.40
2019-05-07T01:36:13.108Z,8.36
2019-05-07T01:38:42.730Z,8.36
2019-05-07T01:41:12.484Z,8.33
2019-05-07T01:43:42.885Z,8.34
2019-05-07T01:46:12.954Z,8.32
2019-05-07T01:48:42.940Z,8.29
2019-05-07T01:51:12.890Z,8.30
2019-05-07T01:53:42.987Z,8.31
2019-05-07T01:56:12.509Z,8.31
2019-05-07T01:58:42.518Z,8.32
2019-05-07T02:01:13.081Z,8.29
2019-05-07T02:03:49.764Z,8.25
2019-05-07T02:06:22.034Z,8.26
2019-05-07T02:08:53.063Z,8.25
2019-05-07T02:11:24.022Z,8.26
2019-05-07T02:13:53.059Z,8.23
2019-05-07T02:16:21.960Z,8.22
2019-05-07T02:18:52.653Z,8.21
2019-05-07T02:21:22.097Z,8.25
2019-05-07T02:23:52.435Z,8.30
2019-05-07T02:26:22.537Z,8.30
2019-05-07T02:28:51.976Z,8.24
2019-05-07T02:31:23.241Z,8.26
2019-05-07T02:33:54.045Z,8.26
2019-05-07T02:36:23.677Z,8.24
2019-05-07T02:38:55.538Z,8.19
2019-05-07T02:41:25.962Z,8.28
2019-05-07T02:43:54.815Z,8.17
2019-05-07T02:46:31.277Z,8.18
2019-05-07T02:49:03.141Z,8.17
2019-05-07T02:51:33.617Z,8.24
2019-05-07T02:54:04.535Z,8.31
2019-05-07T02:56:33.690Z,8.27
2019-05-07T02:59:04.208Z,8.19
2019-05-07T03:01:34.809Z,8.13
2019-05-07T03:04:03.811Z,8.07
2019-05-07T03:06:34.124Z,8.09
2019-05-07T03:09:03.399Z,8.04
2019-05-07T03:11:33.954Z,8.03
2019-05-07T03:14:03.380Z,8.02
2019-05-07T03:16:43.596Z,7.96
2019-05-07T03:19:04.874Z,8.03
2019-05-07T03:21:44.759Z,8.05
2019-05-07T03:24:15.094Z,8.03
2019-05-07T03:26:45.507Z,8.07
2019-05-07T03:29:16.015Z,8.00
2019-05-07T03:31:47.574Z,8.10
2019-05-07T03:34:25.785Z,8.07
2019-05-07T03:36:56.377Z,8.11
2019-05-07T03:39:26.382Z,8.09
2019-05-07T03:41:55.377Z,8.07
2019-05-07T03:44:33.859Z,8.06
2019-05-07T03:47:06.361Z,7.97
2019-05-07T03:49:35.551Z,7.93
2019-05-07T03:52:06.337Z,7.92
2019-05-07T03:54:35.555Z,7.97
2019-05-07T03:57:10.778Z,8.04
2019-05-07T03:59:36.148Z,8.02
2019-05-07T04:02:05.610Z,8.09
2019-05-07T04:04:34.983Z,8.08
2019-05-07T04:07:05.447Z,8.05
2019-05-07T04:09:35.054Z,7.99
2019-05-07T04:12:04.411Z,7.98
2019-05-07T04:14:34.702Z,7.91
2019-05-07T04:17:16.628Z,7.96
2019-05-07T04:19:35.112Z,7.95
2019-05-07T04:22:04.542Z,7.98
2019-05-07T04:24:47.600Z,8.04
2019-05-07T04:27:23.829Z,8.08
2019-05-07T04:29:53.268Z,8.07
2019-05-07T04:32:24.256Z,8.09
2019-05-07T04:34:57.940Z,8.11
2019-05-07T04:37:27.229Z,8.17
2019-05-07T04:39:56.537Z,8.16
2019-05-07T04:42:25.718Z,8.19
2019-05-07T04:44:54.893Z,8.26
2019-05-07T04:47:36.920Z,8.30
2019-05-07T04:49:54.976Z,8.36
2019-05-07T04:52:33.589Z,8.45
2019-05-07T04:55:04.092Z,8.48
2019-05-07T04:57:33.444Z,8.49
2019-05-07T05:00:03.683Z,8.52
2019-05-07T05:02:52.737Z,8.50
2019-05-07T05:05:23.670Z,8.55
2019-05-07T05:07:53.408Z,8.58
2019-05-07T05:10:23.468Z,8.64
2019-05-07T05:12:53.606Z,8.70
2019-05-07T05:15:25.206Z,8.72
2019-05-07T05:17:54.429Z,8.96
2019-05-07T05:20:26.425Z,9.67
2019-05-07T05:23:08.456Z,10.27
2019-05-07T05:25:39.224Z,10.70
2019-05-07T05:28:12.372Z,11.10
2019-05-07T05:30:43.820Z,11.36
2019-05-07T05:33:13.381Z,11.66
2019-05-07T05:35:43.227Z,11.84
2019-05-07T05:38:13.882Z,12.01
2019-05-07T05:40:43.724Z,12.19
2019-05-07T05:43:31.954Z,12.21
2019-05-07T05:46:03.108Z,11.88
2019-05-07T05:48:33.390Z,11.38
2019-05-07T05:51:22.580Z,11.23
2019-05-07T05:54:02.305Z,11.16
2019-05-07T05:56:48.180Z,11.00
2019-05-07T05:59:46.921Z,10.84
2019-05-07T06:02:12.129Z,10.74
2019-05-07T06:04:57.656Z,10.83
2019-05-07T06:07:34.676Z,10.85
2019-05-07T06:10:07.084Z,10.78
2019-05-07T06:12:39.292Z,10.68
2019-05-07T06:15:15.718Z,10.63
2019-05-07T06:17:58.874Z,10.59
2019-05-07T06:20:32.386Z,10.53
2019-05-07T06:23:22.316Z,10.53
2019-05-07T06:25:52.308Z,10.59
2019-05-07T06:28:22.534Z,10.65
2019-05-07T06:30:52.907Z,10.74
2019-05-07T06:33:23.176Z,10.83
2019-05-07T06:35:52.767Z,10.97
2019-05-07T06:38:23.542Z,11.13
2019-05-07T06:41:12.146Z,11.33
2019-05-07T06:43:46.194Z,11.46
2019-05-07T06:46:15.583Z,11.56
2019-05-07T06:48:46.212Z,11.58
2019-05-07T06:51:17.626Z,11.56
2019-05-07T06:53:47.337Z,11.59
2019-05-07T06:56:18.000Z,11.54
2019-05-07T06:58:52.629Z,11.52
2019-05-07T07:01:32.259Z,11.53
2019-05-07T07:04:10.000Z,11.61
2019-05-07T07:06:49.771Z,11.68
2019-05-07T07:09:29.943Z,11.70
2019-05-07T07:12:17.315Z,11.74
2019-05-07T07:14:46.962Z,11.84
2019-05-07T07:17:16.235Z,11.93
2019-05-07T07:19:45.653Z,11.86
2019-05-07T07:22:15.465Z,11.89
2019-05-07T07:24:44.736Z,11.98
2019-05-07T07:27:14.941Z,12.03
2019-05-07T07:30:05.041Z,12.16
2019-05-07T07:32:36.108Z,12.31
2019-05-07T07:35:08.400Z,12.36
2019-05-07T07:37:42.999Z,12.42
2019-05-07T07:40:14.503Z,12.47
2019-05-07T07:42:44.215Z,12.51
2019-05-07T07:45:18.175Z,12.58
2019-05-07T07:47:48.205Z,12.61
2019-05-07T07:50:17.867Z,12.62
2019-05-07T07:52:47.794Z,12.60
2019-05-07T07:55:19.145Z,12.62
2019-05-07T07:57:51.994Z,12.72
2019-05-07T08:00:39.001Z,12.75
2019-05-07T08:03:15.858Z,12.81
2019-05-07T08:05:45.218Z,12.92
2019-05-07T08:08:14.509Z,13.09
2019-05-07T08:10:44.746Z,12.93
2019-05-07T08:13:15.912Z,12.87
2019-05-07T08:15:45.359Z,12.89
2019-05-07T08:18:16.121Z,12.97
2019-05-07T08:20:45.438Z,13.07
2019-05-07T08:23:14.785Z,13.05
2019-05-07T08:25:52.474Z,13.08
2019-05-07T08:28:23.118Z,13.19
2019-05-07T08:30:54.733Z,13.34
2019-05-07T08:33:25.674Z,13.42
2019-05-07T08:36:12.091Z,13.48
2019-05-07T08:38:52.902Z,13.61
2019-05-07T08:41:22.611Z,13.57
2019-05-07T08:44:07.345Z,13.67
2019-05-07T08:46:26.518Z,13.79
2019-05-07T08:48:55.894Z,13.88
2019-05-07T08:51:25.649Z,13.95
2019-05-07T08:54:07.457Z,14.10
2019-05-07T08:56:38.461Z,14.21
2019-05-07T08:59:08.372Z,14.19
2019-05-07T09:01:39.188Z,14.40
2019-05-07T09:04:08.928Z,14.56
2019-05-07T09:06:38.619Z,14.74
2019-05-07T09:09:13.472Z,14.70
2019-05-07T09:11:43.207Z,14.79
2019-05-07T09:14:12.910Z,15.13
2019-05-07T09:16:42.670Z,15.07
2019-05-07T09:19:13.034Z,15.06
2019-05-07T09:21:42.988Z,15.06
2019-05-07T09:24:12.620Z,14.94
2019-05-07T09:26:46.611Z,14.84
2019-05-07T09:29:24.143Z,14.82
2019-05-07T09:32:12.139Z,14.68
2019-05-07T09:34:49.142Z,14.77
2019-05-07T09:37:29.234Z,14.56
2019-05-07T09:39:58.627Z,14.25
2019-05-07T09:42:28.197Z,14.14
2019-05-07T09:44:57.825Z,14.16
2019-05-07T09:47:27.553Z,14.28
2019-05-07T09:50:04.556Z,14.46
2019-05-07T09:52:27.998Z,14.56
2019-05-07T09:54:57.390Z,14.61
2019-05-07T09:57:31.174Z,14.54
2019-05-07T09:59:58.933Z,14.61
2019-05-07T10:02:28.438Z,14.65
2019-05-07T10:04:57.899Z,14.72
2019-05-07T10:07:27.313Z,14.79
2019-05-07T10:09:57.529Z,14.70
2019-05-07T10:12:32.991Z,14.66
2019-05-07T10:15:03.089Z,14.54
2019-05-07T10:20:23.320Z,14.77
2019-05-07T10:22:53.729Z,15.13
2019-05-07T10:25:25.688Z,15.48
2019-05-07T10:27:55.778Z,15.48
2019-05-07T10:30:26.196Z,15.32
2019-05-07T10:32:56.695Z,15.29
2019-05-07T10:35:30.921Z,15.65
2019-05-07T10:38:01.935Z,15.49
2019-05-07T10:40:32.829Z,15.54
2019-05-07T10:43:03.096Z,15.70
2019-05-07T10:45:38.679Z,15.94
2019-05-07T10:48:16.830Z,16.12
2019-05-07T10:50:58.149Z,16.56
2019-05-07T10:53:28.356Z,16.51
2019-05-07T10:55:58.648Z,16.52
2019-05-07T10:58:29.035Z,16.35
2019-05-07T11:00:59.626Z,16.10
2019-05-07T11:03:29.820Z,15.91
2019-05-07T11:06:00.028Z,15.91
2019-05-07T11:08:32.675Z,16.04
2019-05-07T11:11:02.920Z,15.94
2019-05-07T11:13:33.427Z,15.90
2019-05-07T11:16:05.193Z,15.72
2019-05-07T11:18:37.233Z,16.27
2019-05-07T11:21:07.468Z,16.57
2019-05-07T11:23:37.630Z,16.71
2019-05-07T11:26:07.911Z,17.26
2019-05-07T11:28:38.151Z,17.67
2019-05-07T11:31:08.781Z,17.45
2019-05-07T11:33:39.126Z,17.29
2019-05-07T11:36:09.292Z,17.06
2019-05-07T11:38:39.534Z,17.16
2019-05-07T11:41:09.757Z,17.62
2019-05-07T11:43:45.724Z,17.96
2019-05-07T11:46:23.730Z,18.24
2019-05-07T11:48:55.744Z,17.98
2019-05-07T11:51:25.667Z,17.87
2019-05-07T11:54:09.625Z,17.93
2019-05-07T11:56:42.026Z,17.91
2019-05-07T11:59:13.348Z,18.26
2019-05-07T12:01:47.781Z,18.70
2019-05-07T12:04:17.305Z,18.94
2019-05-07T12:06:47.647Z,19.07
2019-05-07T12:09:21.633Z,19.24
2019-05-07T12:11:52.055Z,18.69
2019-05-07T12:14:30.943Z,18.53
2019-05-07T12:16:54.920Z,18.54
2019-05-07T12:19:25.610Z,18.58
2019-05-07T12:22:00.321Z,18.37
2019-05-07T12:24:32.686Z,18.36
2019-05-07T12:27:02.673Z,18.37
2019-05-07T12:29:33.102Z,18.43
2019-05-07T12:32:07.624Z,18.39
2019-05-07T12:34:39.650Z,18.45
2019-05-07T12:37:12.121Z,18.03
2019-05-07T12:39:42.314Z,18.84
2019-05-07T12:42:13.462Z,19.06
2019-05-07T12:44:44.049Z,19.07
2019-05-07T12:47:14.416Z,18.88
2019-05-07T12:49:44.642Z,19.14
2019-05-07T12:52:16.335Z,19.59
2019-05-07T12:54:48.150Z,19.49
2019-05-07T12:57:18.323Z,19.17
2019-05-07T12:59:49.686Z,19.03
2019-05-07T13:02:37.360Z,18.51
2019-05-07T13:04:53.893Z,17.75
2019-05-07T13:07:23.800Z,17.79
2019-05-07T13:09:54.858Z,18.09
2019-05-07T13:12:25.067Z,18.01
2019-05-07T13:14:55.576Z,18.07
2019-05-07T13:17:25.997Z,18.30
2019-05-07T13:19:56.338Z,18.56
2019-05-07T13:22:26.687Z,18.83
2019-05-07T13:24:56.953Z,19.15
2019-05-07T13:27:27.307Z,19.28
2019-05-07T13:29:57.950Z,18.96
2019-05-07T13:32:31.899Z,18.81
2019-05-07T13:35:03.519Z,18.51
2019-05-07T13:37:35.600Z,18.80
2019-05-07T13:40:13.771Z,19.04
2019-05-07T13:42:46.326Z,18.76
2019-05-07T13:45:27.311Z,19.12
2019-05-07T13:47:59.391Z,19.68
2019-05-07T13:50:28.806Z,19.76
2019-05-07T13:52:59.018Z,19.76
2019-05-07T13:55:29.310Z,19.12
2019-05-07T13:57:59.616Z,19.05
2019-05-07T14:00:32.465Z,18.48
2019-05-07T14:03:03.353Z,18.66
2019-05-07T14:05:33.817Z,18.62
2019-05-07T14:08:04.739Z,18.58
2019-05-07T14:10:35.138Z,18.32
2019-05-07T14:13:11.164Z,18.23
2019-05-07T14:15:36.736Z,18.64
2019-05-07T14:18:06.907Z,18.61
2019-05-07T14:20:37.148Z,19.00
2019-05-07T14:23:07.380Z,19.42
2019-05-07T14:25:37.690Z,19.12
2019-05-07T14:28:07.941Z,19.03
2019-05-07T14:30:38.630Z,18.90
2019-05-07T14:33:09.426Z,18.69
2019-05-07T14:35:52.064Z,18.59
2019-05-07T14:38:23.763Z,18.72
2019-05-07T14:40:54.155Z,19.18
2019-05-07T14:43:28.521Z,18.89
2019-05-07T14:46:00.311Z,18.71
2019-05-07T14:48:30.715Z,19.33
2019-05-07T14:51:02.198Z,19.74
2019-05-07T14:53:32.888Z,19.96
2019-05-07T14:56:03.550Z,19.87
2019-05-07T14:58:33.666Z,19.77
2019-05-07T15:01:04.127Z,20.02
2019-05-07T15:03:33.436Z,19.66
2019-05-07T15:06:04.309Z,19.51
2019-05-07T15:08:34.739Z,20.47
2019-05-07T15:11:05.350Z,21.24
2019-05-07T15:13:36.005Z,21.49
2019-05-07T15:16:07.203Z,21.12
2019-05-07T15:18:47.797Z,21.72
2019-05-07T15:21:18.143Z,21.89
2019-05-07T15:23:49.535Z,21.69
2019-05-07T15:26:21.923Z,21.49
2019-05-07T15:28:52.239Z,21.87
2019-05-07T15:31:26.495Z,21.88
2019-05-07T15:33:56.729Z,22.10
2019-05-07T15:36:25.932Z,22.32
2019-05-07T15:38:56.123Z,22.45
2019-05-07T15:41:26.289Z,22.74
2019-05-07T15:43:56.382Z,22.32
2019-05-07T15:46:25.694Z,21.62
2019-05-07T15:48:55.981Z,21.31
2019-05-07T15:51:26.111Z,21.06
2019-05-07T15:53:57.779Z,21.51
2019-05-07T15:56:29.290Z,22.21
2019-05-07T15:58:59.575Z,22.54
2019-05-07T16:01:29.876Z,22.51
2019-05-07T16:04:02.609Z,22.26
2019-05-07T16:06:32.410Z,22.77
2019-05-07T16:09:04.656Z,22.77
2019-05-07T16:11:35.038Z,22.89
2019-05-07T16:14:04.895Z,23.16
2019-05-07T16:16:36.687Z,23.48
2019-05-07T16:19:09.115Z,23.85
2019-05-07T16:21:39.637Z,24.01
2019-05-07T16:24:11.972Z,23.87
2019-05-07T16:26:41.989Z,23.99
2019-05-07T16:29:13.341Z,23.97
2019-05-07T16:31:44.399Z,23.96
2019-05-07T16:34:14.583Z,23.98
2019-05-07T16:36:44.785Z,23.83
2019-05-07T16:39:15.151Z,23.79
2019-05-07T16:41:45.252Z,23.15
2019-05-07T16:44:15.627Z,23.06
2019-05-07T16:46:46.748Z,23.06
2019-05-07T16:49:16.828Z,22.47
2019-05-07T16:51:47.135Z,21.28
2019-05-07T16:54:17.459Z,20.64
2019-05-07T16:57:05.417Z,20.58
2019-05-07T16:59:35.655Z,20.29
2019-05-07T17:02:07.431Z,19.97
2019-05-07T17:04:39.036Z,19.65
2019-05-07T17:07:13.186Z,19.29
2019-05-07T17:09:42.696Z,19.07
2019-05-07T17:12:14.513Z,18.86
2019-05-07T17:14:44.619Z,18.73
2019-05-07T17:17:14.930Z,18.51
2019-05-07T17:19:45.128Z,18.28
2019-05-07T17:22:15.493Z,18.15
2019-05-07T17:24:45.779Z,17.97
2019-05-07T17:27:16.175Z,17.88
2019-05-07T17:29:46.282Z,17.80
2019-05-07T17:32:16.456Z,17.66
2019-05-07T17:34:46.673Z,17.47
2019-05-07T17:37:16.978Z,17.42
2019-05-07T17:39:47.147Z,17.40
2019-05-07T17:42:17.548Z,17.30
2019-05-07T17:44:47.802Z,17.17
2019-05-07T17:47:17.971Z,17.00
2019-05-07T17:49:48.230Z,16.87
2019-05-07T17:52:18.611Z,16.83
2019-05-07T17:54:48.733Z,16.73
2019-05-07T17:57:19.132Z,16.65
2019-05-07T17:59:49.407Z,16.50
2019-05-07T18:02:19.461Z,16.41
2019-05-07T18:04:52.250Z,16.42
2019-05-07T18:07:21.562Z,16.31
2019-05-07T18:09:51.947Z,16.16
2019-05-07T18:12:22.565Z,16.18
2019-05-07T18:14:53.045Z,16.13
2019-05-07T18:17:27.665Z,16.06
2019-05-07T18:19:58.024Z,15.89
2019-05-07T18:22:28.176Z,15.89
2019-05-07T18:24:58.390Z,15.68
2019-05-07T18:27:28.597Z,15.63
2019-05-07T18:29:58.878Z,15.62
2019-05-07T18:32:32.427Z,15.49
2019-05-07T18:35:02.639Z,15.44
2019-05-07T18:37:32.783Z,15.33
2019-05-07T18:40:03.088Z,15.28
2019-05-07T18:42:33.447Z,15.18
2019-05-07T18:45:03.683Z,15.09
2019-05-07T18:47:33.945Z,15.06
2019-05-07T18:50:05.776Z,14.93
2019-05-07T18:52:36.029Z,14.83
2019-05-07T18:55:08.805Z,14.78
2019-05-07T18:57:38.997Z,14.76
2019-05-07T19:00:18.979Z,14.68
2019-05-07T19:02:49.441Z,14.47
2019-05-07T19:05:19.625Z,14.43
2019-05-07T19:08:02.359Z,14.27
2019-05-07T19:10:22.039Z,14.21
2019-05-07T19:12:53.122Z,14.12
2019-05-07T19:15:23.433Z,14.00
2019-05-07T19:17:53.192Z,13.90
2019-05-07T19:20:23.009Z,13.91
2019-05-07T19:22:53.091Z,13.80
2019-05-07T19:25:22.958Z,13.70
2019-05-07T19:27:52.756Z,13.59
2019-05-07T19:30:22.706Z,13.51
2019-05-07T19:32:52.653Z,13.42
2019-05-07T19:35:23.082Z,13.38
2019-05-07T19:37:53.643Z,13.34
2019-05-07T19:40:23.692Z,13.25
2019-05-07T19:42:53.360Z,13.19
2019-05-07T19:45:24.539Z,13.11
2019-05-07T19:47:54.376Z,13.05
2019-05-07T19:50:24.224Z,13.01
2019-05-07T19:52:53.878Z,12.97
2019-05-07T19:55:23.599Z,12.94
2019-05-07T19:58:00.770Z,12.92
2019-05-07T20:00:32.662Z,12.84
2019-05-07T20:03:03.362Z,12.72
2019-05-07T20:05:33.353Z,12.67
2019-05-07T20:08:04.700Z,12.63
2019-05-07T20:10:44.754Z,12.58
2019-05-07T20:13:14.411Z,12.56
2019-05-07T20:15:45.851Z,12.48
2019-05-07T20:18:15.558Z,12.44
2019-05-07T20:20:45.302Z,12.40
2019-05-07T20:23:15.144Z,12.42
2019-05-07T20:25:44.861Z,12.32
2019-05-07T20:28:16.542Z,12.34
2019-05-07T20:30:45.893Z,12.29
2019-05-07T20:33:15.718Z,12.27
2019-05-07T20:35:45.439Z,12.27
2019-05-07T20:38:15.163Z,12.28
2019-05-07T20:40:44.822Z,12.24
2019-05-07T20:43:14.460Z,12.20
2019-05-07T20:45:44.178Z,12.18
2019-05-07T20:48:13.962Z,12.14
2019-05-07T20:50:43.815Z,12.23
2019-05-07T20:53:13.409Z,12.23
2019-05-07T20:55:47.873Z,12.19
2019-05-07T20:58:17.494Z,12.16
2019-05-07T21:00:47.747Z,12.21
2019-05-07T21:03:20.392Z,12.10
2019-05-07T21:05:53.159Z,12.08
2019-05-07T21:08:23.177Z,11.99
2019-05-07T21:10:53.843Z,11.98
2019-05-07T21:13:30.776Z,11.97
2019-05-07T21:15:56.737Z,11.93
2019-05-07T21:18:26.427Z,11.92
2019-05-07T21:20:56.214Z,11.92
2019-05-07T21:23:25.981Z,11.85
2019-05-07T21:25:55.721Z,11.76
2019-05-07T21:28:25.403Z,11.72
2019-05-07T21:30:55.025Z,11.67
2019-05-07T21:33:24.625Z,11.58
2019-05-07T21:35:54.274Z,11.51
2019-05-07T21:38:23.982Z,11.39
2019-05-07T21:40:53.650Z,11.26
2019-05-07T21:43:23.348Z,11.15
2019-05-07T21:45:53.170Z,11.12
2019-05-07T21:48:22.920Z,11.09
2019-05-07T21:50:53.070Z,11.01
2019-05-07T21:53:27.250Z,10.97
2019-05-07T21:56:05.444Z,10.98
2019-05-07T21:58:34.998Z,10.97
2019-05-07T22:01:06.440Z,10.92
2019-05-07T22:03:36.143Z,10.93
2019-05-07T22:06:09.452Z,10.89
2019-05-07T22:08:37.535Z,10.87
2019-05-07T22:11:07.282Z,10.83
2019-05-07T22:13:37.014Z,10.79
2019-05-07T22:16:06.761Z,10.77
2019-05-07T22:18:36.390Z,10.75
2019-05-07T22:21:06.232Z,10.78
2019-05-07T22:23:35.919Z,10.77
2019-05-07T22:26:19.300Z,10.73
2019-05-07T22:28:37.780Z,10.75
2019-05-07T22:31:26.923Z,10.74
2019-05-07T22:34:07.026Z,10.59
2019-05-07T22:36:36.567Z,10.46
2019-05-07T22:39:08.276Z,10.41
2019-05-07T22:41:37.920Z,10.33
2019-05-07T22:44:07.670Z,10.26
2019-05-07T22:46:37.412Z,10.23
2019-05-07T22:49:07.069Z,10.24
2019-05-07T22:51:36.906Z,10.20
2019-05-07T22:54:06.653Z,10.14
2019-05-07T22:56:54.172Z,10.15
2019-05-07T22:59:23.862Z,10.16
2019-05-07T23:01:54.904Z,10.17
2019-05-07T23:04:24.985Z,10.17
2019-05-07T23:06:54.817Z,10.16
2019-05-07T23:09:24.405Z,10.18
2019-05-07T23:11:54.992Z,10.16
2019-05-07T23:14:24.715Z,10.17
2019-05-07T23:16:55.434Z,10.13
2019-05-07T23:19:25.335Z,10.11
2019-05-07T23:21:54.960Z,10.13
2019-05-07T23:24:24.951Z,10.17
2019-05-07T23:26:54.758Z,10.14
2019-05-07T23:29:24.405Z,10.16
2019-05-07T23:31:56.779Z,10.19
2019-05-07T23:34:26.490Z,10.16
2019-05-07T23:36:56.251Z,10.14
2019-05-07T23:39:30.337Z,10.08
2019-05-07T23:42:04.337Z,10.06
2019-05-07T23:44:34.004Z,10.02
2019-05-07T23:47:03.765Z,10.01
2019-05-07T23:49:33.433Z,10.00
2019-05-07T23:52:03.329Z,10.04
2019-05-07T23:54:33.074Z,10.05
2019-05-07T23:57:06.942Z,10.05
2019-05-07T23:59:34.216Z,9.99
